sensor_id;sensor_type;location;lat;lon;timestamp;pressure;altitude;pressure_sealevel;temperature;humidity
79366;BME280;68833;53.160;17.920;2023-04-25T00:01:43;99517.64;;;12.22;75.68
79366;BME280;68833;53.160;17.920;2023-04-25T00:04:10;99519.95;;;12.21;75.79
79366;BME280;68833;53.160;17.920;2023-04-25T00:06:37;99516.59;;;12.17;75.67
79366;BME280;68833;53.160;17.920;2023-04-25T00:09:05;99517.83;;;12.11;75.71
79366;BME280;68833;53.160;17.920;2023-04-25T00:11:34;99518.75;;;12.05;75.66
79366;BME280;68833;53.160;17.920;2023-04-25T00:14:00;99516.42;;;12.01;75.85
79366;BME280;68833;53.160;17.920;2023-04-25T00:16:29;99517.55;;;11.98;75.72
79366;BME280;68833;53.160;17.920;2023-04-25T00:19:00;99519.05;;;11.95;75.38
79366;BME280;68833;53.160;17.920;2023-04-25T00:21:27;99520.03;;;11.92;75.32
79366;BME280;68833;53.160;17.920;2023-04-25T00:23:55;99519.83;;;11.88;75.50
79366;BME280;68833;53.160;17.920;2023-04-25T00:26:21;99512.30;;;11.81;75.22
79366;BME280;68833;53.160;17.920;2023-04-25T00:28:48;99518.77;;;11.77;75.17
79366;BME280;68833;53.160;17.920;2023-04-25T00:31:14;99521.54;;;11.73;75.12
79366;BME280;68833;53.160;17.920;2023-04-25T00:33:40;99522.70;;;11.70;75.07
79366;BME280;68833;53.160;17.920;2023-04-25T00:36:07;99523.33;;;11.67;74.88
79366;BME280;68833;53.160;17.920;2023-04-25T00:38:34;99531.66;;;11.64;74.88
79366;BME280;68833;53.160;17.920;2023-04-25T00:41:02;99534.25;;;11.60;74.82
79366;BME280;68833;53.160;17.920;2023-04-25T00:43:30;99527.56;;;11.55;74.86
79366;BME280;68833;53.160;17.920;2023-04-25T00:45:59;99530.06;;;11.54;74.68
79366;BME280;68833;53.160;17.920;2023-04-25T00:48:26;99535.29;;;11.50;74.27
79366;BME280;68833;53.160;17.920;2023-04-25T00:50:55;99536.33;;;11.44;74.35
79366;BME280;68833;53.160;17.920;2023-04-25T00:53:27;99536.84;;;11.40;74.19
79366;BME280;68833;53.160;17.920;2023-04-25T00:55:54;99541.27;;;11.33;73.68
79366;BME280;68833;53.160;17.920;2023-04-25T00:58:22;99540.61;;;11.25;73.92
79366;BME280;68833;53.160;17.920;2023-04-25T01:00:50;99544.32;;;11.19;73.83
79366;BME280;68833;53.160;17.920;2023-04-25T01:03:18;99544.98;;;11.14;73.67
79366;BME280;68833;53.160;17.920;2023-04-25T01:05:48;99546.27;;;11.12;73.64
79366;BME280;68833;53.160;17.920;2023-04-25T01:08:15;99545.84;;;11.09;73.59
79366;BME280;68833;53.160;17.920;2023-04-25T01:10:41;99545.63;;;11.04;73.46
79366;BME280;68833;53.160;17.920;2023-04-25T01:13:08;99545.97;;;10.99;73.54
79366;BME280;68833;53.160;17.920;2023-04-25T01:15:34;99544.55;;;10.93;73.33
79366;BME280;68833;53.160;17.920;2023-04-25T01:18:02;99544.34;;;10.88;73.33
79366;BME280;68833;53.160;17.920;2023-04-25T01:20:32;99543.23;;;10.84;73.09
79366;BME280;68833;53.160;17.920;2023-04-25T01:22:59;99545.39;;;10.81;73.06
79366;BME280;68833;53.160;17.920;2023-04-25T01:25:26;99543.73;;;10.78;72.94
79366;BME280;68833;53.160;17.920;2023-04-25T01:27:56;99541.95;;;10.73;72.68
79366;BME280;68833;53.160;17.920;2023-04-25T01:30:23;99548.61;;;10.67;72.78
79366;BME280;68833;53.160;17.920;2023-04-25T01:32:50;99550.16;;;10.61;73.10
79366;BME280;68833;53.160;17.920;2023-04-25T01:35:17;99552.25;;;10.57;72.77
79366;BME280;68833;53.160;17.920;2023-04-25T01:37:44;99552.73;;;10.52;72.82
79366;BME280;68833;53.160;17.920;2023-04-25T01:40:12;99552.36;;;10.46;72.75
79366;BME280;68833;53.160;17.920;2023-04-25T01:42:42;99550.48;;;10.43;72.71
79366;BME280;68833;53.160;17.920;2023-04-25T01:45:09;99552.98;;;10.42;72.83
79366;BME280;68833;53.160;17.920;2023-04-25T01:47:38;99555.83;;;10.40;72.94
79366;BME280;68833;53.160;17.920;2023-04-25T01:50:06;99555.94;;;10.37;72.95
79366;BME280;68833;53.160;17.920;2023-04-25T01:52:34;99560.93;;;10.33;72.94
79366;BME280;68833;53.160;17.920;2023-04-25T01:55:02;99556.26;;;10.30;72.98
79366;BME280;68833;53.160;17.920;2023-04-25T01:57:30;99564.84;;;10.30;73.11
79366;BME280;68833;53.160;17.920;2023-04-25T02:00:02;99565.02;;;10.30;73.24
79366;BME280;68833;53.160;17.920;2023-04-25T02:02:41;99567.38;;;10.27;73.26
79366;BME280;68833;53.160;17.920;2023-04-25T02:05:17;99568.61;;;10.26;73.26
79366;BME280;68833;53.160;17.920;2023-04-25T02:07:44;99564.09;;;10.25;73.32
79366;BME280;68833;53.160;17.920;2023-04-25T02:10:11;99567.14;;;10.23;73.37
79366;BME280;68833;53.160;17.920;2023-04-25T02:12:49;99570.47;;;10.23;73.20
79366;BME280;68833;53.160;17.920;2023-04-25T02:15:48;99571.98;;;10.19;73.22
79366;BME280;68833;53.160;17.920;2023-04-25T02:18:17;99570.46;;;10.16;73.18
79366;BME280;68833;53.160;17.920;2023-04-25T02:20:43;99573.89;;;10.12;73.15
79366;BME280;68833;53.160;17.920;2023-04-25T02:23:10;99574.85;;;10.09;73.35
79366;BME280;68833;53.160;17.920;2023-04-25T02:25:36;99578.83;;;10.05;73.39
79366;BME280;68833;53.160;17.920;2023-04-25T02:28:03;99575.94;;;10.01;73.50
79366;BME280;68833;53.160;17.920;2023-04-25T02:30:29;99577.07;;;9.98;73.45
79366;BME280;68833;53.160;17.920;2023-04-25T02:32:56;99578.20;;;9.94;73.28
79366;BME280;68833;53.160;17.920;2023-04-25T02:35:23;99579.89;;;9.90;73.30
79366;BME280;68833;53.160;17.920;2023-04-25T02:37:53;99577.56;;;9.85;73.22
79366;BME280;68833;53.160;17.920;2023-04-25T02:40:20;99580.34;;;9.78;73.11
79366;BME280;68833;53.160;17.920;2023-04-25T02:42:47;99584.17;;;9.71;73.05
79366;BME280;68833;53.160;17.920;2023-04-25T02:45:13;99586.05;;;9.67;73.21
79366;BME280;68833;53.160;17.920;2023-04-25T02:47:39;99583.81;;;9.64;73.15
79366;BME280;68833;53.160;17.920;2023-04-25T02:50:06;99586.05;;;9.66;73.37
79366;BME280;68833;53.160;17.920;2023-04-25T02:52:33;99586.67;;;9.62;73.09
79366;BME280;68833;53.160;17.920;2023-04-25T02:55:07;99587.27;;;9.58;73.11
79366;BME280;68833;53.160;17.920;2023-04-25T02:57:34;99590.19;;;9.54;73.28
79366;BME280;68833;53.160;17.920;2023-04-25T03:00:00;99589.05;;;9.49;73.18
79366;BME280;68833;53.160;17.920;2023-04-25T03:02:26;99591.74;;;9.47;73.09
79366;BME280;68833;53.160;17.920;2023-04-25T03:04:53;99592.31;;;9.45;73.07
79366;BME280;68833;53.160;17.920;2023-04-25T03:07:20;99594.96;;;9.44;73.07
79366;BME280;68833;53.160;17.920;2023-04-25T03:09:48;99590.50;;;9.40;72.91
79366;BME280;68833;53.160;17.920;2023-04-25T03:12:15;99587.23;;;9.37;73.13
79366;BME280;68833;53.160;17.920;2023-04-25T03:14:41;99588.90;;;9.32;72.97
79366;BME280;68833;53.160;17.920;2023-04-25T03:17:08;99592.11;;;9.30;72.97
79366;BME280;68833;53.160;17.920;2023-04-25T03:19:35;99586.63;;;9.24;73.10
79366;BME280;68833;53.160;17.920;2023-04-25T03:22:01;99589.33;;;9.21;73.01
79366;BME280;68833;53.160;17.920;2023-04-25T03:24:28;99592.00;;;9.19;73.02
79366;BME280;68833;53.160;17.920;2023-04-25T03:26:55;99588.55;;;9.16;72.94
79366;BME280;68833;53.160;17.920;2023-04-25T03:29:21;99588.92;;;9.15;73.20
79366;BME280;68833;53.160;17.920;2023-04-25T03:31:52;99589.68;;;9.12;73.05
79366;BME280;68833;53.160;17.920;2023-04-25T03:34:20;99591.86;;;9.09;73.02
79366;BME280;68833;53.160;17.920;2023-04-25T03:36:47;99599.15;;;9.04;73.15
79366;BME280;68833;53.160;17.920;2023-04-25T03:39:16;99598.88;;;9.00;72.88
79366;BME280;68833;53.160;17.920;2023-04-25T03:41:47;99599.63;;;8.97;73.12
79366;BME280;68833;53.160;17.920;2023-04-25T03:44:14;99597.06;;;8.93;72.86
79366;BME280;68833;53.160;17.920;2023-04-25T03:46:41;99600.11;;;8.90;72.96
79366;BME280;68833;53.160;17.920;2023-04-25T03:49:08;99602.95;;;8.88;73.04
79366;BME280;68833;53.160;17.920;2023-04-25T03:51:55;99604.98;;;8.83;73.02
79366;BME280;68833;53.160;17.920;2023-04-25T03:54:22;99606.70;;;8.76;72.92
79366;BME280;68833;53.160;17.920;2023-04-25T03:56:59;99611.28;;;8.74;73.01
79366;BME280;68833;53.160;17.920;2023-04-25T03:59:28;99614.63;;;8.73;73.27
79366;BME280;68833;53.160;17.920;2023-04-25T04:01:54;99616.95;;;8.70;73.07
79366;BME280;68833;53.160;17.920;2023-04-25T04:04:21;99621.38;;;8.68;73.12
79366;BME280;68833;53.160;17.920;2023-04-25T04:06:49;99625.98;;;8.65;73.27
79366;BME280;68833;53.160;17.920;2023-04-25T04:09:21;99627.30;;;8.59;73.25
79366;BME280;68833;53.160;17.920;2023-04-25T04:11:47;99628.78;;;8.55;73.27
79366;BME280;68833;53.160;17.920;2023-04-25T04:14:14;99627.27;;;8.52;73.12
79366;BME280;68833;53.160;17.920;2023-04-25T04:16:44;99633.03;;;8.52;73.43
79366;BME280;68833;53.160;17.920;2023-04-25T04:19:11;99637.11;;;8.49;73.23
79366;BME280;68833;53.160;17.920;2023-04-25T04:21:40;99638.77;;;8.46;73.31
79366;BME280;68833;53.160;17.920;2023-04-25T04:24:06;99640.70;;;8.42;73.27
79366;BME280;68833;53.160;17.920;2023-04-25T10:03:39;99760.93;;;11.48;63.35
79366;BME280;68833;53.160;17.920;2023-04-25T10:06:35;99762.61;;;11.45;62.90
79366;BME280;68833;53.160;17.920;2023-04-25T10:09:04;99761.29;;;11.42;62.83
79366;BME280;68833;53.160;17.920;2023-04-25T10:11:35;99762.03;;;11.40;62.83
79366;BME280;68833;53.160;17.920;2023-04-25T10:14:03;99763.09;;;11.41;62.78
79366;BME280;68833;53.160;17.920;2023-04-25T10:16:32;99762.63;;;11.44;62.58
79366;BME280;68833;53.160;17.920;2023-04-25T10:18:59;99762.39;;;11.47;62.41
79366;BME280;68833;53.160;17.920;2023-04-25T10:21:28;99760.49;;;11.52;62.12
79366;BME280;68833;53.160;17.920;2023-04-25T10:23:58;99764.91;;;11.57;62.17
79366;BME280;68833;53.160;17.920;2023-04-25T10:26:25;99764.06;;;11.62;61.79
79366;BME280;68833;53.160;17.920;2023-04-25T10:28:59;99764.66;;;11.66;62.16
79366;BME280;68833;53.160;17.920;2023-04-25T10:31:29;99762.46;;;11.69;62.18
79366;BME280;68833;53.160;17.920;2023-04-25T10:33:59;99760.94;;;11.74;62.06
79366;BME280;68833;53.160;17.920;2023-04-25T10:36:31;99765.80;;;11.76;62.35
79366;BME280;68833;53.160;17.920;2023-04-25T10:39:05;99769.23;;;11.79;61.70
79366;BME280;68833;53.160;17.920;2023-04-25T10:41:46;99770.61;;;11.79;61.27
79366;BME280;68833;53.160;17.920;2023-04-25T10:44:14;99772.71;;;11.79;61.05
79366;BME280;68833;53.160;17.920;2023-04-25T10:46:44;99765.21;;;11.78;60.64
79366;BME280;68833;53.160;17.920;2023-04-25T10:49:15;99769.66;;;11.75;60.71
79366;BME280;68833;53.160;17.920;2023-04-25T10:54:55;99772.52;;;11.68;60.31
79366;BME280;68833;53.160;17.920;2023-04-25T16:46:59;99906.27;;;9.91;63.40
79366;BME280;68833;53.160;17.920;2023-04-25T16:49:27;99907.17;;;9.90;63.60
79366;BME280;68833;53.160;17.920;2023-04-25T16:51:54;99908.03;;;9.91;63.44
79366;BME280;68833;53.160;17.920;2023-04-25T16:54:21;99905.60;;;9.90;63.46
79366;BME280;68833;53.160;17.920;2023-04-25T16:56:51;99907.19;;;9.89;63.63
79366;BME280;68833;53.160;17.920;2023-04-25T16:59:19;99904.25;;;9.87;63.64
79366;BME280;68833;53.160;17.920;2023-04-25T17:01:46;99911.30;;;9.85;63.86
79366;BME280;68833;53.160;17.920;2023-04-25T17:04:14;99909.05;;;9.84;63.63
79366;BME280;68833;53.160;17.920;2023-04-25T17:06:41;99910.12;;;9.83;63.86
79366;BME280;68833;53.160;17.920;2023-04-25T17:09:08;99910.95;;;9.85;63.86
79366;BME280;68833;53.160;17.920;2023-04-25T17:11:36;99916.55;;;9.86;63.85
79366;BME280;68833;53.160;17.920;2023-04-25T17:14:03;99917.73;;;9.88;64.20
79366;BME280;68833;53.160;17.920;2023-04-25T17:16:35;99914.38;;;9.90;64.29
79366;BME280;68833;53.160;17.920;2023-04-25T17:19:05;99920.52;;;9.89;64.17
79366;BME280;68833;53.160;17.920;2023-04-25T17:21:33;99920.71;;;9.88;64.37
79366;BME280;68833;53.160;17.920;2023-04-25T17:24:01;99924.92;;;9.88;64.54
79366;BME280;68833;53.160;17.920;2023-04-25T17:26:32;99930.88;;;9.88;64.78
79366;BME280;68833;53.160;17.920;2023-04-25T17:29:00;99934.23;;;9.87;64.83
79366;BME280;68833;53.160;17.920;2023-04-25T17:31:28;99930.23;;;9.85;65.02
79366;BME280;68833;53.160;17.920;2023-04-25T17:33:56;99934.84;;;9.84;65.39
79366;BME280;68833;53.160;17.920;2023-04-25T17:36:23;99939.03;;;9.84;65.63
79366;BME280;68833;53.160;17.920;2023-04-25T17:38:50;99939.20;;;9.84;65.85
79366;BME280;68833;53.160;17.920;2023-04-25T17:41:17;99944.27;;;9.86;66.43
79366;BME280;68833;53.160;17.920;2023-04-25T17:43:44;99949.38;;;9.85;66.59
79366;BME280;68833;53.160;17.920;2023-04-25T17:46:11;99947.19;;;9.79;66.73
79366;BME280;68833;53.160;17.920;2023-04-25T17:48:38;99953.07;;;9.73;66.74
79366;BME280;68833;53.160;17.920;2023-04-25T17:51:06;99953.31;;;9.69;67.19
79366;BME280;68833;53.160;17.920;2023-04-25T17:53:34;99956.33;;;9.69;67.62
79366;BME280;68833;53.160;17.920;2023-04-25T17:56:02;99957.34;;;9.70;67.92
79366;BME280;68833;53.160;17.920;2023-04-25T17:58:29;99964.85;;;9.72;68.02
79366;BME280;68833;53.160;17.920;2023-04-25T18:00:58;99970.10;;;9.73;68.38
79366;BME280;68833;53.160;17.920;2023-04-25T18:03:26;99975.15;;;9.74;68.49
79366;BME280;68833;53.160;17.920;2023-04-25T18:05:53;99976.38;;;9.74;68.42
79366;BME280;68833;53.160;17.920;2023-04-25T18:08:20;99978.33;;;9.73;68.89
79366;BME280;68833;53.160;17.920;2023-04-25T18:10:49;99982.73;;;9.73;68.87
79366;BME280;68833;53.160;17.920;2023-04-25T18:13:16;99982.01;;;9.73;68.64
79366;BME280;68833;53.160;17.920;2023-04-25T18:15:43;99987.30;;;9.72;68.63
79366;BME280;68833;53.160;17.920;2023-04-25T18:18:11;99992.39;;;9.72;68.86
79366;BME280;68833;53.160;17.920;2023-04-25T18:20:46;100000.60;;;9.73;69.04
79366;BME280;68833;53.160;17.920;2023-04-25T18:23:14;100006.40;;;9.72;69.19
79366;BME280;68833;53.160;17.920;2023-04-25T18:25:42;100013.95;;;9.72;69.23
79366;BME280;68833;53.160;17.920;2023-04-25T18:28:09;100013.99;;;9.69;69.38
79366;BME280;68833;53.160;17.920;2023-04-25T18:30:37;100017.05;;;9.65;69.42
79366;BME280;68833;53.160;17.920;2023-04-25T18:33:04;100030.27;;;9.59;68.88
79366;BME280;68833;53.160;17.920;2023-04-25T18:35:32;100028.27;;;9.54;68.63
79366;BME280;68833;53.160;17.920;2023-04-25T18:37:59;100028.17;;;9.49;68.50
79366;BME280;68833;53.160;17.920;2023-04-25T18:40:27;100037.98;;;9.49;68.37
79366;BME280;68833;53.160;17.920;2023-04-25T18:42:54;100040.36;;;9.43;67.77
79366;BME280;68833;53.160;17.920;2023-04-25T18:45:21;100043.58;;;9.38;66.82
79366;BME280;68833;53.160;17.920;2023-04-25T18:47:48;100050.70;;;9.30;66.35
79366;BME280;68833;53.160;17.920;2023-04-25T18:50:15;100053.94;;;9.24;66.27
79366;BME280;68833;53.160;17.920;2023-04-25T18:52:46;100054.21;;;9.16;65.45
79366;BME280;68833;53.160;17.920;2023-04-25T18:55:13;100055.72;;;9.10;65.35
79366;BME280;68833;53.160;17.920;2023-04-25T18:57:41;100059.45;;;9.05;65.16
79366;BME280;68833;53.160;17.920;2023-04-25T19:00:09;100062.67;;;8.99;65.00
79366;BME280;68833;53.160;17.920;2023-04-25T19:02:38;100061.71;;;8.92;65.04
79366;BME280;68833;53.160;17.920;2023-04-25T19:05:05;100064.24;;;8.85;64.65
79366;BME280;68833;53.160;17.920;2023-04-25T19:07:33;100061.52;;;8.79;64.53
79366;BME280;68833;53.160;17.920;2023-04-25T19:10:02;100070.86;;;8.74;64.39
79366;BME280;68833;53.160;17.920;2023-04-25T19:12:29;100068.13;;;8.68;63.78
79366;BME280;68833;53.160;17.920;2023-04-25T19:15:00;100073.77;;;8.63;64.01
79366;BME280;68833;53.160;17.920;2023-04-25T19:17:27;100073.30;;;8.59;63.96
79366;BME280;68833;53.160;17.920;2023-04-25T19:19:54;100073.52;;;8.55;63.58
79366;BME280;68833;53.160;17.920;2023-04-25T19:22:22;100076.71;;;8.52;63.64
79366;BME280;68833;53.160;17.920;2023-04-25T19:24:50;100075.70;;;8.48;63.42
79366;BME280;68833;53.160;17.920;2023-04-25T19:27:17;100076.41;;;8.45;63.93
79366;BME280;68833;53.160;17.920;2023-04-25T19:29:45;100084.13;;;8.45;63.57
79366;BME280;68833;53.160;17.920;2023-04-25T19:32:14;100083.40;;;8.44;63.35
79366;BME280;68833;53.160;17.920;2023-04-25T19:34:42;100082.55;;;8.42;63.02
79366;BME280;68833;53.160;17.920;2023-04-25T19:37:10;100087.11;;;8.41;63.31
79366;BME280;68833;53.160;17.920;2023-04-25T19:39:37;100087.64;;;8.39;62.62
79366;BME280;68833;53.160;17.920;2023-04-25T19:42:04;100089.25;;;8.36;62.54
79366;BME280;68833;53.160;17.920;2023-04-25T19:44:32;100093.30;;;8.34;62.59
79366;BME280;68833;53.160;17.920;2023-04-25T19:46:59;100094.73;;;8.31;62.41
79366;BME280;68833;53.160;17.920;2023-04-25T19:49:27;100092.31;;;8.26;62.56
79366;BME280;68833;53.160;17.920;2023-04-25T19:51:56;100094.81;;;8.20;62.28
79366;BME280;68833;53.160;17.920;2023-04-25T19:54:23;100093.30;;;8.16;61.89
79366;BME280;68833;53.160;17.920;2023-04-25T19:56:51;100093.34;;;8.10;61.90
79366;BME280;68833;53.160;17.920;2023-04-25T19:59:20;100093.71;;;8.06;62.04
79366;BME280;68833;53.160;17.920;2023-04-25T20:01:47;100099.19;;;8.02;62.24
79366;BME280;68833;53.160;17.920;2023-04-25T20:04:14;100100.61;;;7.98;61.95
79366;BME280;68833;53.160;17.920;2023-04-25T20:06:43;100100.29;;;7.94;62.11
79366;BME280;68833;53.160;17.920;2023-04-25T20:09:10;100101.35;;;7.91;62.11
79366;BME280;68833;53.160;17.920;2023-04-25T20:11:37;100101.02;;;7.88;62.15
79366;BME280;68833;53.160;17.920;2023-04-25T20:14:05;100097.39;;;7.84;62.10
79366;BME280;68833;53.160;17.920;2023-04-25T20:16:32;100097.24;;;7.80;62.20
79366;BME280;68833;53.160;17.920;2023-04-25T20:18:59;100100.42;;;7.76;62.12
79366;BME280;68833;53.160;17.920;2023-04-25T20:21:27;100096.77;;;7.71;62.24
79366;BME280;68833;53.160;17.920;2023-04-25T20:23:55;100103.28;;;7.68;62.28
79366;BME280;68833;53.160;17.920;2023-04-25T20:26:24;100105.73;;;7.65;62.37
79366;BME280;68833;53.160;17.920;2023-04-25T20:28:51;100106.63;;;7.63;62.46
79366;BME280;68833;53.160;17.920;2023-04-25T20:31:18;100105.59;;;7.62;62.29
79366;BME280;68833;53.160;17.920;2023-04-25T20:33:46;100110.66;;;7.59;62.43
79366;BME280;68833;53.160;17.920;2023-04-25T20:36:13;100114.70;;;7.57;62.37
79366;BME280;68833;53.160;17.920;2023-04-25T20:38:45;100119.25;;;7.54;62.35
79366;BME280;68833;53.160;17.920;2023-04-25T20:41:11;100115.95;;;7.52;62.05
79366;BME280;68833;53.160;17.920;2023-04-25T20:43:39;100115.96;;;7.49;62.38
79366;BME280;68833;53.160;17.920;2023-04-25T20:46:07;100117.58;;;7.44;62.32
79366;BME280;68833;53.160;17.920;2023-04-25T20:48:34;100123.88;;;7.41;62.20
79366;BME280;68833;53.160;17.920;2023-04-25T20:51:01;100123.36;;;7.37;62.53
79366;BME280;68833;53.160;17.920;2023-04-25T20:53:30;100124.44;;;7.33;62.47
79366;BME280;68833;53.160;17.920;2023-04-25T20:55:57;100123.07;;;7.28;62.64
79366;BME280;68833;53.160;17.920;2023-04-25T20:58:25;100124.67;;;7.23;62.91
79366;BME280;68833;53.160;17.920;2023-04-25T21:00:52;100125.91;;;7.19;63.15
79366;BME280;68833;53.160;17.920;2023-04-25T21:03:20;100126.27;;;7.14;63.09
79366;BME280;68833;53.160;17.920;2023-04-25T21:05:47;100127.17;;;7.08;62.86
79366;BME280;68833;53.160;17.920;2023-04-25T21:08:15;100128.07;;;7.02;62.92
79366;BME280;68833;53.160;17.920;2023-04-25T21:10:42;100130.02;;;6.96;63.24
79366;BME280;68833;53.160;17.920;2023-04-25T21:13:09;100126.36;;;6.94;63.38
79366;BME280;68833;53.160;17.920;2023-04-25T21:15:37;100127.40;;;6.93;63.02
79366;BME280;68833;53.160;17.920;2023-04-25T21:18:05;100122.69;;;6.91;63.33
79366;BME280;68833;53.160;17.920;2023-04-25T21:20:32;100120.43;;;6.89;63.36
79366;BME280;68833;53.160;17.920;2023-04-25T21:23:01;100121.84;;;6.86;63.52
79366;BME280;68833;53.160;17.920;2023-04-25T21:25:29;100120.61;;;6.82;63.71
79366;BME280;68833;53.160;17.920;2023-04-25T21:27:59;100126.23;;;6.78;63.93
79366;BME280;68833;53.160;17.920;2023-04-25T21:30:28;100120.47;;;6.74;63.69
79366;BME280;68833;53.160;17.920;2023-04-25T21:32:55;100122.05;;;6.69;63.86
79366;BME280;68833;53.160;17.920;2023-04-25T21:35:23;100122.59;;;6.64;63.92
79366;BME280;68833;53.160;17.920;2023-04-25T21:37:50;100124.70;;;6.59;64.12
79366;BME280;68833;53.160;17.920;2023-04-25T21:40:19;100122.43;;;6.54;63.99
79366;BME280;68833;53.160;17.920;2023-04-25T21:42:47;100121.58;;;6.49;64.01
79366;BME280;68833;53.160;17.920;2023-04-25T21:45:17;100121.05;;;6.44;64.13
79366;BME280;68833;53.160;17.920;2023-04-25T21:47:45;100121.92;;;6.41;64.32
79366;BME280;68833;53.160;17.920;2023-04-25T21:50:15;100118.80;;;6.39;64.25
79366;BME280;68833;53.160;17.920;2023-04-25T21:52:42;100119.49;;;6.39;64.33
79366;BME280;68833;53.160;17.920;2023-04-25T21:55:09;100120.19;;;6.38;64.25
79366;BME280;68833;53.160;17.920;2023-04-25T21:57:37;100118.98;;;6.34;64.04
79366;BME280;68833;53.160;17.920;2023-04-25T22:00:06;100117.23;;;6.30;64.28
79366;BME280;68833;53.160;17.920;2023-04-25T22:02:47;100114.45;;;6.25;64.15
79366;BME280;68833;53.160;17.920;2023-04-25T22:08:38;100126.30;;;6.18;64.14
79366;BME280;68833;53.160;17.920;2023-04-25T22:11:05;100124.04;;;6.12;64.42
79366;BME280;68833;53.160;17.920;2023-04-25T22:13:33;100124.57;;;6.08;64.50
79366;BME280;68833;53.160;17.920;2023-04-25T22:16:02;100129.61;;;6.05;64.46
79366;BME280;68833;53.160;17.920;2023-04-25T22:18:31;100129.09;;;6.00;64.70
79366;BME280;68833;53.160;17.920;2023-04-25T22:20:58;100127.66;;;5.95;64.42
79366;BME280;68833;53.160;17.920;2023-04-25T22:23:26;100124.86;;;5.89;64.84
79366;BME280;68833;53.160;17.920;2023-04-25T22:25:54;100129.05;;;5.86;64.57
79366;BME280;68833;53.160;17.920;2023-04-25T22:28:22;100130.97;;;5.88;64.98
79366;BME280;68833;53.160;17.920;2023-04-25T22:30:50;100133.05;;;5.88;64.89
79366;BME280;68833;53.160;17.920;2023-04-25T22:33:17;100132.72;;;5.88;65.06
79366;BME280;68833;53.160;17.920;2023-04-25T22:35:45;100133.59;;;5.87;64.44
79366;BME280;68833;53.160;17.920;2023-04-25T22:38:13;100133.58;;;5.87;64.58
79366;BME280;68833;53.160;17.920;2023-04-25T22:40:41;100131.67;;;5.86;64.90
79366;BME280;68833;53.160;17.920;2023-04-25T22:43:09;100132.19;;;5.86;65.16
79366;BME280;68833;53.160;17.920;2023-04-25T22:45:36;100130.27;;;5.85;64.96
79366;BME280;68833;53.160;17.920;2023-04-25T22:48:04;100129.91;;;5.85;65.17
79366;BME280;68833;53.160;17.920;2023-04-25T22:50:32;100130.44;;;5.85;65.07
79366;BME280;68833;53.160;17.920;2023-04-25T22:53:02;100130.09;;;5.83;65.08
79366;BME280;68833;53.160;17.920;2023-04-25T22:55:32;100130.77;;;5.81;64.98
79366;BME280;68833;53.160;17.920;2023-04-25T22:57:59;100131.64;;;5.78;65.18
79366;BME280;68833;53.160;17.920;2023-04-25T23:00:30;100133.04;;;5.76;65.12
79366;BME280;68833;53.160;17.920;2023-04-25T23:03:01;100135.83;;;5.75;65.06
79366;BME280;68833;53.160;17.920;2023-04-25T23:05:31;100135.84;;;5.74;65.28
79366;BME280;68833;53.160;17.920;2023-04-25T23:07:58;100128.85;;;5.74;65.36
79366;BME280;68833;53.160;17.920;2023-04-25T23:10:27;100134.42;;;5.74;65.49
79366;BME280;68833;53.160;17.920;2023-04-25T23:12:54;100132.50;;;5.75;64.93
79366;BME280;68833;53.160;17.920;2023-04-25T23:15:27;100131.81;;;5.76;65.03
79366;BME280;68833;53.160;17.920;2023-04-25T23:17:59;100133.38;;;5.75;64.74
79366;BME280;68833;53.160;17.920;2023-04-25T23:20:27;100136.88;;;5.74;64.71
79366;BME280;68833;53.160;17.920;2023-04-25T23:22:55;100136.18;;;5.74;65.50
79366;BME280;68833;53.160;17.920;2023-04-25T23:25:24;100133.03;;;5.73;65.55
79366;BME280;68833;53.160;17.920;2023-04-25T23:27:52;100134.95;;;5.72;65.50
79366;BME280;68833;53.160;17.920;2023-04-25T23:30:20;100138.78;;;5.71;65.37
79366;BME280;68833;53.160;17.920;2023-04-25T23:32:49;100136.52;;;5.70;65.43
79366;BME280;68833;53.160;17.920;2023-04-25T23:35:18;100143.84;;;5.70;65.67
79366;BME280;68833;53.160;17.920;2023-04-25T23:37:46;100142.96;;;5.72;65.71
79366;BME280;68833;53.160;17.920;2023-04-25T23:40:14;100145.05;;;5.75;65.53
79366;BME280;68833;53.160;17.920;2023-04-25T23:42:42;100145.08;;;5.77;65.61
79366;BME280;68833;53.160;17.920;2023-04-25T23:45:09;100140.02;;;5.77;65.62
79366;BME280;68833;53.160;17.920;2023-04-25T23:47:37;100143.67;;;5.77;65.75
79366;BME280;68833;53.160;17.920;2023-04-25T23:50:09;100142.97;;;5.79;65.55
79366;BME280;68833;53.160;17.920;2023-04-25T23:52:39;100145.77;;;5.79;65.68
79366;BME280;68833;53.160;17.920;2023-04-25T23:55:07;100143.15;;;5.80;66.17
79366;BME280;68833;53.160;17.920;2023-04-25T23:57:38;100144.36;;;5.80;65.69
